Terminal Aerodrome Forecast
Issued by NWS

Home | Current Version | Previous Version | Graphics & Text | Print | Product List | Glossary On
Versions: 1 2 3 4 5 6 7 8 9 10 11 12 13 14 15 16 17 18 19 20 21 22 23 24 25 26 27 28 29 30 31
000
FTUS43 KLOT 231730
TAFORD
TAF
KORD 231730Z 2318/2424 04013G17KT P6SM SCT008 BKN012
     FM232200 04013G20KT P6SM VCSH BKN025 OVC080
      TEMPO 2322/2401 -SHRA
     FM240100 05014G21KT 5SM -SHRA BR OVC008
     FM240500 06015G22KT 3SM SHRA BR OVC005 PROB30 2405/2410 2SM
      TSRA OVC008CB
     FM241100 05011KT 2SM -RADZ BR VCSH OVC004
     FM241900 25008KT P6SM BKN007
     FM242100 24014G25KT P6SM SCT007 BKN013=

USA.gov is the U.S. government's official web portal to all federal, state and local government web resources and services.